createdAt,value
2019-04-23T00:01:54.411Z,32.36
2019-04-23T00:04:16.872Z,31.81
2019-04-23T00:07:04.161Z,32.47
2019-04-23T00:09:20.403Z,31.97
2019-04-23T00:11:46.144Z,33.25
2019-04-23T00:14:20.787Z,32.67
2019-04-23T00:16:45.978Z,32.91
2019-04-23T00:19:18.634Z,33.83
2019-04-23T00:21:52.218Z,32.60
2019-04-23T00:25:09.752Z,32.80
2019-04-23T00:27:17.079Z,32.56
2019-04-23T00:29:46.237Z,33.23
2019-04-23T00:32:08.472Z,34.19
2019-04-23T00:34:44.580Z,33.17
2019-04-23T00:37:12.518Z,34.28
2019-04-23T00:39:43.954Z,33.37
2019-04-23T00:42:07.090Z,33.65
2019-04-23T00:44:41.520Z,34.05
2019-04-23T00:47:06.156Z,33.66
2019-04-23T00:49:37.184Z,34.36
2019-04-23T00:52:06.075Z,33.66
2019-04-23T00:54:32.703Z,33.89
2019-04-23T00:57:07.518Z,34.43
2019-04-23T00:59:38.789Z,34.58
2019-04-23T01:02:00.917Z,35.06
2019-04-23T01:04:32.801Z,34.01
2019-04-23T01:06:58.285Z,32.73
2019-04-23T01:09:37.306Z,33.37
2019-04-23T01:12:03.129Z,34.22
2019-04-23T01:14:31.607Z,34.40
2019-04-23T01:17:04.811Z,33.45
2019-04-23T01:19:37.254Z,34.00
2019-04-23T01:21:51.494Z,33.69
2019-04-23T01:24:37.191Z,34.37
2019-04-23T01:30:08.377Z,33.27
2019-04-23T01:32:31.454Z,33.46
2019-04-23T01:35:10.973Z,32.91
2019-04-23T01:37:33.163Z,34.13
2019-04-23T01:39:59.253Z,33.67
2019-04-23T01:42:37.315Z,33.71
2019-04-23T01:45:03.363Z,33.83
2019-04-23T01:47:24.684Z,33.71
2019-04-23T01:50:01.889Z,34.43
2019-04-23T01:52:32.019Z,33.17
2019-04-23T01:54:52.248Z,34.51
2019-04-23T01:57:26.365Z,33.52
2019-04-23T01:59:55.217Z,34.91
2019-04-23T02:02:29.802Z,34.12
2019-04-23T02:04:54.224Z,34.76
2019-04-23T02:07:34.204Z,33.81
2019-04-23T02:09:55.608Z,33.36
2019-04-23T02:12:28.862Z,34.63
2019-04-23T02:14:50.371Z,34.46
2019-04-23T02:17:24.736Z,33.96
2019-04-23T02:19:51.830Z,34.06
2019-04-23T02:22:38.181Z,33.86
2019-04-23T02:25:30.306Z,33.97
2019-04-23T02:27:53.689Z,34.93
2019-04-23T02:30:40.643Z,33.85
2019-04-23T02:32:59.330Z,34.96
2019-04-23T02:40:30.574Z,34.75
2019-04-23T02:43:01.652Z,34.77
2019-04-23T02:45:36.115Z,35.87
2019-04-23T02:50:34.658Z,35.21
2019-04-23T02:52:49.798Z,35.59
2019-04-23T02:57:54.169Z,34.86
2019-04-23T03:02:49.071Z,35.15
2019-04-23T03:07:45.122Z,36.39
2019-04-23T03:10:18.431Z,35.18
2019-04-23T03:18:39.237Z,36.18
2019-04-23T03:21:25.427Z,35.64
2019-04-23T03:24:11.354Z,35.92
2019-04-23T03:35:09.169Z,37.12
2019-04-23T03:36:39.628Z,35.24
2019-04-23T03:38:51.594Z,35.67
2019-04-23T03:41:41.760Z,35.63
2019-04-23T03:46:29.466Z,36.28
2019-04-23T03:56:45.229Z,37.18
2019-04-23T04:01:29.149Z,36.21
2019-04-23T04:04:22.740Z,36.69
2019-04-23T04:09:06.281Z,36.49
2019-04-23T04:14:10.242Z,36.45
2019-04-23T04:16:28.421Z,35.81
2019-04-23T04:31:37.463Z,38.63
2019-04-23T04:34:14.794Z,36.43
2019-04-23T04:36:53.530Z,36.89
2019-04-23T04:38:56.628Z,36.53
2019-04-23T04:41:27.683Z,37.25
2019-04-23T04:46:30.401Z,38.71
2019-04-23T04:48:56.553Z,36.40
2019-04-23T04:51:32.748Z,35.82
2019-04-23T04:54:08.273Z,36.52
2019-04-23T04:58:52.972Z,37.23
2019-04-23T05:03:32.788Z,37.75
2019-04-23T05:06:33.867Z,36.43
2019-04-23T05:08:54.392Z,36.92
2019-04-23T05:19:10.727Z,37.22
2019-04-23T05:21:26.842Z,36.11
2019-04-23T05:23:54.085Z,37.13
2019-04-23T05:26:29.341Z,36.05
2019-04-23T05:29:00.139Z,39.17
2019-04-23T05:31:18.990Z,39.83
2019-04-23T05:33:56.851Z,36.19
2019-04-23T05:36:52.049Z,36.87
2019-04-23T05:39:07.568Z,37.11
2019-04-23T05:41:24.929Z,38.07
2019-04-23T05:43:46.454Z,36.44
2019-04-23T05:46:21.244Z,36.84
2019-04-23T05:48:45.846Z,38.21
2019-04-23T05:51:38.282Z,36.81
2019-04-23T05:53:47.175Z,37.25
2019-04-23T05:56:15.235Z,37.08
2019-04-23T05:58:46.863Z,36.49
2019-04-23T06:01:41.707Z,36.40
2019-04-23T06:03:56.934Z,36.15
2019-04-23T06:06:20.278Z,37.33
2019-04-23T06:08:49.266Z,35.79
2019-04-23T06:11:20.873Z,36.58
2019-04-23T06:13:56.270Z,37.12
2019-04-23T06:16:24.965Z,36.58
2019-04-23T06:21:15.654Z,35.60
2019-04-23T06:26:26.860Z,37.30
2019-04-23T06:28:50.757Z,36.87
2019-04-23T06:31:22.886Z,36.21
2019-04-23T06:33:48.087Z,35.73
2019-04-23T06:36:24.267Z,37.38
2019-04-23T06:41:15.638Z,37.23
2019-04-23T06:44:15.875Z,36.06
2019-04-23T06:46:43.428Z,36.79
2019-04-23T06:49:11.401Z,37.47
2019-04-23T06:51:46.205Z,36.55
2019-04-23T06:54:03.315Z,36.73
2019-04-23T06:56:44.778Z,37.22
2019-04-23T06:59:07.641Z,36.14
2019-04-23T07:01:37.855Z,35.49
2019-04-23T07:06:38.454Z,35.85
2019-04-23T07:09:10.650Z,35.35
2019-04-23T07:11:40.273Z,36.08
2019-04-23T07:13:58.775Z,35.47
2019-04-23T07:16:32.891Z,35.94
2019-04-23T07:19:12.570Z,37.72
2019-04-23T07:21:37.302Z,35.72
2019-04-23T07:24:05.420Z,35.29
2019-04-23T07:26:34.911Z,35.68
2019-04-23T07:31:48.362Z,35.26
2019-04-23T07:34:01.287Z,35.35
2019-04-23T07:36:34.249Z,37.30
2019-04-23T07:42:09.159Z,36.38
2019-04-23T07:44:54.534Z,36.23
2019-04-23T07:47:26.378Z,35.18
2019-04-23T07:50:00.711Z,35.01
2019-04-23T07:52:24.272Z,35.45
2019-04-23T07:54:58.780Z,35.52
2019-04-23T07:57:34.036Z,36.83
2019-04-23T07:59:56.834Z,35.93
2019-04-23T08:07:19.830Z,36.35
2019-04-23T08:09:53.287Z,36.39
2019-04-23T08:14:53.631Z,35.88
2019-04-23T08:17:21.009Z,35.38
2019-04-23T08:22:28.734Z,35.04
2019-04-23T08:27:42.069Z,35.69
2019-04-23T08:30:09.776Z,35.85
2019-04-23T08:32:47.323Z,36.11
2019-04-23T08:35:23.328Z,34.92
2019-04-23T08:38:02.673Z,35.45
2019-04-23T08:40:21.546Z,35.42
2019-04-23T08:43:10.337Z,35.78
2019-04-23T08:45:38.471Z,36.52
2019-04-23T08:53:29.727Z,35.83
2019-04-23T08:55:58.318Z,35.25
2019-04-23T08:58:23.795Z,35.76
2019-04-23T09:03:23.126Z,35.45
2019-04-23T09:05:57.787Z,35.43
2019-04-23T09:08:19.916Z,34.44
2019-04-23T09:10:54.733Z,34.73
2019-04-23T09:15:44.949Z,35.29
2019-04-23T09:18:17.946Z,35.34
2019-04-23T09:23:13.160Z,34.65
2019-04-23T09:25:51.035Z,34.11
2019-04-23T09:28:24.024Z,34.38
2019-04-23T09:30:49.351Z,34.05
2019-04-23T09:33:45.315Z,34.26
2019-04-23T09:36:20.192Z,34.67
2019-04-23T09:39:00.188Z,34.24
2019-04-23T09:42:04.818Z,33.76
2019-04-23T09:47:42.029Z,34.45
2019-04-23T09:50:08.991Z,34.16
2019-04-23T09:52:41.030Z,34.06
2019-04-23T09:57:33.837Z,33.79
2019-04-23T10:00:25.252Z,33.77
2019-04-23T10:02:26.401Z,34.04
2019-04-23T10:05:01.304Z,33.70
2019-04-23T10:07:28.607Z,33.87
2019-04-23T10:09:44.601Z,33.98
2019-04-23T10:12:13.190Z,33.53
2019-04-23T10:14:52.840Z,33.79
2019-04-23T10:17:11.822Z,34.00
2019-04-23T10:19:40.643Z,33.42
2019-04-23T10:22:09.180Z,33.47
2019-04-23T10:24:37.057Z,33.51
2019-04-23T10:27:06.095Z,33.64
2019-04-23T10:29:38.318Z,33.73
2019-04-23T10:32:15.616Z,33.28
2019-04-23T10:34:47.843Z,33.71
2019-04-23T10:37:09.352Z,33.32
2019-04-23T10:39:41.262Z,33.58
2019-04-23T10:42:07.976Z,32.97
2019-04-23T10:44:45.875Z,33.50
2019-04-23T10:48:05.420Z,33.45
2019-04-23T10:50:59.427Z,33.33
2019-04-23T10:56:11.350Z,33.03
2019-04-23T11:01:05.131Z,33.42
2019-04-23T11:03:42.488Z,33.35
2019-04-23T11:05:59.079Z,32.69
2019-04-23T11:08:27.762Z,32.95
2019-04-23T11:10:58.932Z,33.28
2019-04-23T11:13:38.032Z,33.35
2019-04-23T11:16:25.392Z,33.21
2019-04-23T11:18:50.159Z,32.84
2019-04-23T11:21:05.379Z,32.98
2019-04-23T11:23:32.578Z,33.13
2019-04-23T11:26:03.353Z,33.09
2019-04-23T11:30:55.297Z,33.07
2019-04-23T11:33:39.221Z,33.10
2019-04-23T11:36:35.665Z,32.50
2019-04-23T11:38:50.840Z,32.62
2019-04-23T11:41:17.257Z,32.86
2019-04-23T11:43:37.841Z,32.65
2019-04-23T11:48:45.864Z,32.70
2019-04-23T11:53:41.050Z,31.89
2019-04-23T11:56:02.807Z,32.43
2019-04-23T12:01:38.788Z,32.26
2019-04-23T12:04:13.983Z,32.56
2019-04-23T12:06:38.821Z,32.70
2019-04-23T12:09:34.817Z,32.11
2019-04-23T12:17:26.093Z,32.01
2019-04-23T12:19:57.530Z,32.00
2019-04-23T12:22:26.976Z,31.96
2019-04-23T12:38:01.235Z,31.92
2019-04-23T12:40:23.474Z,32.07
2019-04-23T12:42:57.037Z,31.25
2019-04-23T12:52:46.878Z,32.15
2019-04-23T12:55:30.261Z,32.06
2019-04-23T12:58:11.045Z,31.96
2019-04-23T13:00:25.664Z,32.27
2019-04-23T13:02:52.449Z,32.21
2019-04-23T13:07:55.649Z,31.49
2019-04-23T13:10:23.428Z,31.71
2019-04-23T13:15:27.127Z,31.58
2019-04-23T13:17:54.373Z,31.67
2019-04-23T13:20:23.492Z,31.73
2019-04-23T13:23:15.220Z,31.83
2019-04-23T13:33:21.135Z,31.33
2019-04-23T13:36:00.984Z,31.57
2019-04-23T13:38:16.006Z,31.76
2019-04-23T13:46:00.077Z,31.59
2019-04-23T13:48:10.775Z,31.91
2019-04-23T13:50:51.571Z,31.57
2019-04-23T13:53:31.654Z,32.22
2019-04-23T13:55:42.555Z,31.62
2019-04-23T13:58:20.780Z,31.41
2019-04-23T14:03:09.598Z,31.82
2019-04-23T14:06:01.759Z,31.27
2019-04-23T14:08:34.889Z,31.60
2019-04-23T14:21:03.608Z,31.52
2019-04-23T14:23:41.246Z,31.15
2019-04-23T14:26:10.496Z,31.63
2019-04-23T14:28:28.878Z,31.74
2019-04-23T14:33:26.606Z,31.00
2019-04-23T14:35:54.181Z,31.31
2019-04-23T14:41:07.825Z,30.97
2019-04-23T14:43:25.820Z,31.25
2019-04-23T14:48:23.619Z,31.23
2019-04-23T14:51:11.386Z,30.54
2019-04-23T14:53:30.272Z,30.98
2019-04-23T14:56:00.526Z,31.11
2019-04-23T15:03:40.174Z,31.30
2019-04-23T15:08:44.581Z,30.85
2019-04-23T15:13:42.782Z,30.67
2019-04-23T15:24:00.940Z,32.16
2019-04-23T15:28:32.684Z,32.14
2019-04-23T15:41:24.993Z,32.73
2019-04-23T15:43:57.540Z,32.30
2019-04-23T15:46:25.222Z,32.49
2019-04-23T15:48:58.053Z,32.17
2019-04-23T15:51:28.208Z,31.49
2019-04-23T15:53:58.311Z,32.21
2019-04-23T15:56:29.220Z,31.91
2019-04-23T15:59:04.317Z,31.54
2019-04-23T16:03:21.475Z,31.70
2019-04-23T16:05:50.963Z,31.67
2019-04-23T16:08:59.457Z,31.58
2019-04-23T16:11:25.539Z,31.44
2019-04-23T16:14:04.771Z,31.81
2019-04-23T16:16:28.181Z,31.71
2019-04-23T16:19:07.260Z,31.74
2019-04-23T16:21:51.742Z,31.94
2019-04-23T16:24:06.046Z,31.80
2019-04-23T16:26:41.140Z,31.63
2019-04-23T16:31:39.915Z,31.18
2019-04-23T16:34:29.134Z,31.62
2019-04-23T16:37:08.453Z,31.86
2019-04-23T16:39:39.102Z,31.69
2019-04-23T16:42:08.805Z,31.96
2019-04-23T16:47:12.608Z,31.62
2019-04-23T16:49:33.025Z,31.83
2019-04-23T16:52:07.938Z,31.73
2019-04-23T16:57:26.343Z,31.51
2019-04-23T16:59:34.575Z,31.49
2019-04-23T17:02:11.922Z,31.98
2019-04-23T17:04:39.088Z,31.01
2019-04-23T17:07:05.378Z,31.25
2019-04-23T17:09:44.504Z,31.35
2019-04-23T17:15:34.473Z,31.70
2019-04-23T17:18:07.327Z,31.09
2019-04-23T17:20:30.774Z,31.46
2019-04-23T17:23:07.537Z,32.31
2019-04-23T17:25:28.248Z,31.99
2019-04-23T17:28:09.018Z,31.95
2019-04-23T17:30:28.344Z,30.04
2019-04-23T17:33:09.865Z,30.10
2019-04-23T17:35:46.243Z,30.34
2019-04-23T17:38:32.248Z,30.97
2019-04-23T17:41:00.057Z,30.01
2019-04-23T17:43:24.041Z,31.93
2019-04-23T17:45:57.237Z,32.19
2019-04-23T17:48:27.354Z,29.74
2019-04-23T17:53:29.745Z,31.06
2019-04-23T17:58:43.747Z,32.29
2019-04-23T18:03:57.379Z,32.62
2019-04-23T18:08:50.965Z,30.67
2019-04-23T18:11:16.310Z,31.32
2019-04-23T18:16:20.937Z,30.90
2019-04-23T18:18:56.290Z,30.29
2019-04-23T18:21:44.121Z,29.88
2019-04-23T18:27:57.434Z,30.05
2019-04-23T18:35:57.367Z,31.99
2019-04-23T18:38:31.682Z,30.76
2019-04-23T18:46:06.948Z,32.44
2019-04-23T18:48:45.460Z,31.25
2019-04-23T18:56:09.283Z,31.79
2019-04-23T19:06:32.737Z,31.58
2019-04-23T19:09:10.398Z,31.26
2019-04-23T19:12:21.507Z,31.87
2019-04-23T19:14:38.939Z,31.05
2019-04-23T19:19:55.611Z,30.91
2019-04-23T19:22:19.550Z,31.28
2019-04-23T19:24:43.696Z,31.63
2019-04-23T19:27:16.789Z,31.74
2019-04-23T19:29:46.294Z,31.33
2019-04-23T19:32:02.944Z,30.74
2019-04-23T19:34:40.776Z,31.42
2019-04-23T19:37:36.883Z,31.51
2019-04-23T19:42:10.375Z,31.89
2019-04-23T19:44:43.395Z,31.10
2019-04-23T19:52:36.579Z,31.57
2019-04-23T19:57:12.628Z,32.23
2019-04-23T20:04:42.406Z,32.64
2019-04-23T20:07:20.079Z,32.60
2019-04-23T20:19:44.845Z,32.83
2019-04-23T20:22:16.694Z,32.65
2019-04-23T20:25:04.094Z,33.22
2019-04-23T20:27:21.879Z,32.62
2019-04-23T20:30:26.495Z,33.26
2019-04-23T20:35:16.439Z,32.48
2019-04-23T20:40:08.647Z,32.48
2019-04-23T20:42:53.021Z,32.66
2019-04-23T20:45:38.956Z,32.05
2019-04-23T20:47:51.710Z,32.20
2019-04-23T20:50:16.506Z,33.42
2019-04-23T20:52:46.894Z,33.38
2019-04-23T20:55:49.464Z,33.44
2019-04-23T20:57:55.544Z,32.83
2019-04-23T21:00:44.126Z,33.47
2019-04-23T21:03:41.473Z,33.76
2019-04-23T21:05:41.232Z,33.89
2019-04-23T21:08:38.799Z,34.02
2019-04-23T21:13:42.736Z,34.29
2019-04-23T21:18:24.522Z,33.64
2019-04-23T21:20:50.087Z,34.22
2019-04-23T21:23:37.435Z,34.19
2019-04-23T21:26:01.914Z,34.26
2019-04-23T21:32:09.330Z,34.21
2019-04-23T21:34:35.399Z,34.15
2019-04-23T21:37:04.482Z,35.87
2019-04-23T21:40:04.753Z,35.66
2019-04-23T21:42:40.686Z,35.01
2019-04-23T21:44:59.028Z,36.07
2019-04-23T21:47:48.273Z,34.93
2019-04-23T21:50:08.400Z,34.61
2019-04-23T21:52:36.449Z,34.88
2019-04-23T21:57:40.524Z,35.73
2019-04-23T22:00:02.614Z,36.67
2019-04-23T22:02:31.322Z,36.48
2019-04-23T22:05:01.028Z,36.34
2019-04-23T22:07:40.165Z,35.18
2019-04-23T22:10:12.076Z,35.29
2019-04-23T22:12:34.177Z,35.45
2019-04-23T22:15:01.177Z,35.12
2019-04-23T22:17:33.139Z,35.30
2019-04-23T22:22:41.992Z,34.98
2019-04-23T22:24:59.217Z,35.49
2019-04-23T22:27:24.236Z,35.80
2019-04-23T22:29:59.057Z,34.78
2019-04-23T22:32:45.620Z,35.31
2019-04-23T22:35:01.151Z,35.12
2019-04-23T22:37:51.949Z,34.90
2019-04-23T22:39:59.351Z,34.88
2019-04-23T22:45:16.104Z,35.54
2019-04-23T22:47:42.688Z,36.08
2019-04-23T22:50:24.756Z,35.06
2019-04-23T22:57:56.379Z,35.46
2019-04-23T23:00:16.741Z,35.19
2019-04-23T23:03:06.328Z,34.95
2019-04-23T23:05:39.431Z,35.39
2019-04-23T23:10:31.873Z,34.93
2019-04-23T23:13:04.120Z,35.08
2019-04-23T23:15:30.545Z,35.17
2019-04-23T23:18:07.426Z,34.84
2019-04-23T23:20:29.962Z,34.45
2019-04-23T23:23:05.508Z,34.34
2019-04-23T23:25:31.162Z,34.77
2019-04-23T23:28:06.126Z,34.08
2019-04-23T23:30:26.268Z,34.46
2019-04-23T23:33:03.820Z,34.48
2019-04-23T23:35:28.368Z,34.08
2019-04-23T23:37:59.422Z,34.44
2019-04-23T23:40:25.533Z,34.68
2019-04-23T23:43:17.910Z,34.73
2019-04-23T23:45:31.525Z,35.37
2019-04-23T23:47:59.192Z,35.35
2019-04-23T23:53:04.271Z,34.99
2019-04-23T23:58:00.984Z,34.13
